Time;durP1;ratioP1;P1;durP2;ratioP2;P2;SDS_P1;SDS_P2;PMS_P1;PMS_P2;Temp;Humidity;BMP_temperature;BMP_pressure;BME280_temperature;BME280_humidity;BME280_pressure;Samples;Min_cycle;Max_cycle;Signal;HPM_P1;HPM_P2
2022/01/30 00:02:05;;;;;;;46.23;25.00;;;;;;;;;;4439471;32;20292;-54
2022/01/30 00:04:30;;;;;;;68.93;32.47;;;;;;;;;;4417951;32;20300;-55
2022/01/30 00:06:55;;;;;;;71.00;32.60;;;;;;;;;;4415258;32;20735;-54
2022/01/30 00:09:22;;;;;;;68.23;27.93;;;;;;;;;;4414094;32;20789;-54
2022/01/30 00:11:57;;;;;;;61.10;25.07;;;;;;;;;;4416010;32;20300;-55
2022/01/30 00:14:24;;;;;;;39.73;19.97;;;;;;;;;;4417166;32;20305;-55
2022/01/30 00:16:57;;;;;;;49.03;20.50;;;;;;;;;;4418512;32;20255;-54
2022/01/30 00:22:12;;;;;;;71.13;29.17;;;;;;;;;;4431404;32;20221;-56
2022/01/30 00:25:00;;;;;;;77.80;34.83;;;;;;;;;;4420073;32;20252;-55
2022/01/30 00:27:32;;;;;;;75.47;32.27;;;;;;;;;;4433871;32;20658;-54
2022/01/30 00:29:58;;;;;;;83.10;34.67;;;;;;;;;;4433777;32;20199;-54
2022/01/30 00:32:24;;;;;;;75.83;34.40;;;;;;;;;;4433935;32;20316;-54
2022/01/30 00:34:50;;;;;;;55.70;25.40;;;;;;;;;;4434111;32;20383;-56
2022/01/30 00:37:16;;;;;;;40.80;19.70;;;;;;;;;;4433720;32;20379;-55
2022/01/30 00:39:42;;;;;;;40.10;18.77;;;;;;;;;;4419810;32;20272;-54
2022/01/30 00:42:08;;;;;;;42.70;19.17;;;;;;;;;;4433781;32;20334;-56
2022/01/30 00:44:33;;;;;;;49.50;19.67;;;;;;;;;;4436498;32;20303;-54
2022/01/30 00:47:01;;;;;;;47.20;21.43;;;;;;;;;;4448718;32;20248;-54
2022/01/30 00:49:27;;;;;;;53.30;23.97;;;;;;;;;;4449015;32;20268;-55
2022/01/30 00:51:52;;;;;;;55.40;22.93;;;;;;;;;;4449030;32;20256;-54
2022/01/30 00:54:18;;;;;;;126.73;55.93;;;;;;;;;;4449211;32;20313;-55
2022/01/30 00:56:43;;;;;;;73.13;36.10;;;;;;;;;;4448679;32;20259;-54
2022/01/30 00:59:09;;;;;;;39.53;17.33;;;;;;;;;;4420961;32;20383;-55
2022/01/30 01:01:34;;;;;;;35.40;19.27;;;;;;;;;;4417977;32;20308;-54
2022/01/30 01:04:00;;;;;;;35.87;18.73;;;;;;;;;;4427522;32;20299;-55
2022/01/30 01:06:25;;;;;;;46.53;21.97;;;;;;;;;;4433419;32;20316;-55
2022/01/30 01:08:59;;;;;;;39.23;16.17;;;;;;;;;;4433299;32;20415;-56
2022/01/30 01:24:47;;;;;;;49.33;24.30;;;;;;;;;;4417775;32;20228;-54
2022/01/30 01:27:13;;;;;;;38.40;20.27;;;;;;;;;;4417665;32;20232;-54
2022/01/30 01:29:38;;;;;;;35.20;17.40;;;;;;;;;;4417783;32;20307;-56
2022/01/30 01:32:04;;;;;;;32.83;16.10;;;;;;;;;;4417607;32;20646;-55
2022/01/30 01:36:56;;;;;;;66.57;26.90;;;;;;;;;;4417441;32;20256;-55
2022/01/30 01:39:22;;;;;;;60.27;27.77;;;;;;;;;;4390894;32;20377;-55
2022/01/30 01:41:47;;;;;;;57.70;28.63;;;;;;;;;;4403505;32;20304;-55
2022/01/30 01:44:17;;;;;;;58.83;26.87;;;;;;;;;;4404305;32;20819;-56
2022/01/30 01:46:43;;;;;;;60.00;29.53;;;;;;;;;;4432721;32;20265;-54
2022/01/30 01:49:15;;;;;;;69.97;27.93;;;;;;;;;;4432577;32;20240;-53
2022/01/30 01:51:47;;;;;;;64.47;28.03;;;;;;;;;;4432598;32;20220;-54
2022/01/30 01:54:13;;;;;;;64.17;31.87;;;;;;;;;;4432552;32;20564;-54
2022/01/30 01:56:38;;;;;;;60.10;32.63;;;;;;;;;;4432686;32;20763;-55
2022/01/30 01:59:04;;;;;;;55.20;27.77;;;;;;;;;;4432553;32;20307;-56
2022/01/30 02:01:30;;;;;;;57.50;24.97;;;;;;;;;;4432336;32;20319;-55
2022/01/30 02:03:55;;;;;;;54.50;22.20;;;;;;;;;;4423475;32;20331;-55
2022/01/30 02:06:26;;;;;;;36.57;20.47;;;;;;;;;;4417322;32;20533;-54
2022/01/30 02:08:56;;;;;;;41.37;20.97;;;;;;;;;;4416848;32;20197;-54
2022/01/30 02:27:18;;;;;;;51.60;24.20;;;;;;;;;;4431865;32;20243;-54
2022/01/30 02:29:44;;;;;;;40.30;19.43;;;;;;;;;;4432193;32;20224;-54
2022/01/30 02:32:10;;;;;;;37.47;16.57;;;;;;;;;;4432412;32;20228;-55
2022/01/30 02:34:35;;;;;;;46.37;20.77;;;;;;;;;;4432154;32;20305;-55
2022/01/30 02:37:01;;;;;;;39.83;20.03;;;;;;;;;;4431978;32;20352;-54
2022/01/30 02:39:27;;;;;;;47.83;21.67;;;;;;;;;;4432084;32;20356;-55
2022/01/30 02:41:53;;;;;;;44.90;22.33;;;;;;;;;;4431582;32;20263;-53
2022/01/30 02:44:46;;;;;;;44.90;22.60;;;;;;;;;;4433176;32;20272;-54
2022/01/30 02:47:08;;;;;;;53.03;26.27;;;;;;;;;;4447024;32;20330;-54
2022/01/30 02:49:44;;;;;;;70.53;29.00;;;;;;;;;;4431982;32;20224;-55
2022/01/30 02:52:11;;;;;;;72.73;30.57;;;;;;;;;;4430418;32;20279;-53
2022/01/30 02:54:37;;;;;;;61.27;30.90;;;;;;;;;;4417616;32;20414;-54
2022/01/30 02:57:03;;;;;;;65.30;33.67;;;;;;;;;;4417802;32;20228;-54
2022/01/30 02:59:29;;;;;;;60.53;30.13;;;;;;;;;;4431695;32;20296;-59
2022/01/30 03:01:54;;;;;;;73.23;30.17;;;;;;;;;;4431525;32;20368;-54
2022/01/30 03:04:20;;;;;;;68.57;31.10;;;;;;;;;;4406133;32;20656;-56
2022/01/30 03:06:46;;;;;;;65.43;31.07;;;;;;;;;;4401734;32;20275;-55
2022/01/30 03:09:12;;;;;;;75.07;29.83;;;;;;;;;;4402493;32;20684;-55
2022/01/30 03:11:38;;;;;;;57.37;28.60;;;;;;;;;;4416364;32;20274;-54
2022/01/30 03:14:05;;;;;;;53.63;25.63;;;;;;;;;;4416692;32;20227;-54
2022/01/30 03:16:31;;;;;;;55.43;25.67;;;;;;;;;;4416194;32;20228;-54
2022/01/30 03:18:56;;;;;;;59.37;28.87;;;;;;;;;;4416582;32;20287;-56
2022/01/30 03:21:22;;;;;;;68.30;30.50;;;;;;;;;;4416040;32;20266;-55
2022/01/30 03:23:48;;;;;;;51.67;26.10;;;;;;;;;;4415903;32;20376;-55
2022/01/30 03:26:14;;;;;;;49.47;25.97;;;;;;;;;;4415649;32;20281;-54
2022/01/30 03:28:42;;;;;;;61.50;28.97;;;;;;;;;;4414805;32;20224;-57
2022/01/30 03:31:11;;;;;;;61.43;29.27;;;;;;;;;;4414719;32;20312;-54
2022/01/30 03:33:37;;;;;;;58.47;27.20;;;;;;;;;;4416003;32;20240;-54
2022/01/30 03:36:03;;;;;;;56.03;27.00;;;;;;;;;;4416011;32;20587;-54
2022/01/30 03:38:29;;;;;;;69.07;32.40;;;;;;;;;;4425640;32;20308;-54
2022/01/30 03:40:54;;;;;;;73.43;29.33;;;;;;;;;;4416990;32;20630;-55
2022/01/30 03:43:20;;;;;;;55.93;24.77;;;;;;;;;;4431385;32;20332;-54
2022/01/30 03:45:47;;;;;;;48.20;26.50;;;;;;;;;;4442709;32;20228;-54
2022/01/30 03:48:14;;;;;;;65.27;28.83;;;;;;;;;;4450139;32;20239;-55
2022/01/30 03:50:40;;;;;;;49.33;25.77;;;;;;;;;;4449792;32;20350;-54
2022/01/30 03:53:06;;;;;;;51.40;26.57;;;;;;;;;;4435823;32;20327;-55
2022/01/30 03:55:31;;;;;;;52.53;23.70;;;;;;;;;;4449717;32;20682;-55
2022/01/30 03:57:57;;;;;;;46.30;24.13;;;;;;;;;;4434432;32;20382;-54
2022/01/30 04:00:23;;;;;;;47.97;24.93;;;;;;;;;;4434318;32;20619;-54
2022/01/30 04:02:49;;;;;;;53.33;24.00;;;;;;;;;;4420275;32;20403;-54
2022/01/30 04:05:15;;;;;;;45.73;21.67;;;;;;;;;;4421723;32;20310;-55
2022/01/30 04:07:40;;;;;;;36.37;19.47;;;;;;;;;;4433908;32;20619;-55
2022/01/30 04:10:07;;;;;;;58.33;21.60;;;;;;;;;;4420237;32;20324;-54
2022/01/30 04:12:33;;;;;;;48.33;22.23;;;;;;;;;;4432550;32;20731;-55
2022/01/30 04:14:59;;;;;;;53.73;24.00;;;;;;;;;;4433876;32;20212;-54
2022/01/30 04:17:25;;;;;;;55.90;27.60;;;;;;;;;;4434421;32;20677;-54
2022/01/30 04:19:50;;;;;;;57.87;29.87;;;;;;;;;;4434048;32;20673;-54
2022/01/30 04:22:16;;;;;;;74.37;33.50;;;;;;;;;;4433756;32;20608;-54
2022/01/30 04:24:42;;;;;;;74.03;35.20;;;;;;;;;;4433925;32;20313;-56
2022/01/30 04:27:07;;;;;;;69.90;33.67;;;;;;;;;;4433883;32;20236;-56
2022/01/30 04:29:33;;;;;;;70.57;34.23;;;;;;;;;;4432748;32;20297;-56
2022/01/30 04:32:00;;;;;;;65.93;34.40;;;;;;;;;;4433911;32;20262;-54
2022/01/30 04:34:27;;;;;;;89.03;39.00;;;;;;;;;;4433759;32;20333;-55
2022/01/30 04:42:20;;;;;;;69.07;34.63;;;;;;;;;;4418209;32;20213;-54
2022/01/30 04:56:17;;;;;;;113.50;49.37;;;;;;;;;;4433043;32;20251;-54
2022/01/30 04:58:28;;;;;;;119.17;51.97;;;;;;;;;;4433448;32;20237;-53
2022/01/30 05:03:39;;;;;;;95.67;45.30;;;;;;;;;;4427700;32;20633;-54
2022/01/30 05:06:09;;;;;;;87.80;40.43;;;;;;;;;;4418086;32;20303;-55
2022/01/30 05:08:35;;;;;;;79.67;35.93;;;;;;;;;;4417247;32;20613;-55
2022/01/30 05:11:06;;;;;;;62.97;31.53;;;;;;;;;;4417696;32;20255;-54
2022/01/30 05:13:34;;;;;;;47.17;25.77;;;;;;;;;;4417810;32;20355;-55
2022/01/30 05:16:00;;;;;;;45.70;25.13;;;;;;;;;;4416944;32;20316;-55
2022/01/30 05:18:28;;;;;;;39.97;24.00;;;;;;;;;;4416728;32;20315;-54
2022/01/30 05:20:55;;;;;;;51.27;27.90;;;;;;;;;;4417454;32;20703;-54
2022/01/30 05:23:21;;;;;;;49.00;26.80;;;;;;;;;;4403968;32;20552;-55
2022/01/30 05:25:47;;;;;;;51.10;25.37;;;;;;;;;;4417530;32;20253;-54
2022/01/30 05:28:14;;;;;;;63.43;30.10;;;;;;;;;;4417718;32;20278;-54
2022/01/30 05:30:40;;;;;;;56.87;31.83;;;;;;;;;;4417609;32;20222;-55
2022/01/30 05:33:06;;;;;;;85.80;37.70;;;;;;;;;;4417504;32;20348;-54
2022/01/30 05:35:32;;;;;;;71.03;35.10;;;;;;;;;;4416014;32;20295;-54
2022/01/30 05:37:58;;;;;;;64.80;31.20;;;;;;;;;;4417421;32;20399;-54
2022/01/30 05:40:24;;;;;;;79.33;33.20;;;;;;;;;;4416054;32;20259;-55
2022/01/30 05:42:50;;;;;;;61.13;32.97;;;;;;;;;;4416096;32;20710;-55
2022/01/30 05:48:02;;;;;;;74.73;34.37;;;;;;;;;;4417368;32;20260;-54
2022/01/30 05:50:28;;;;;;;65.53;32.00;;;;;;;;;;4418003;32;22221;-55
2022/01/30 05:52:53;;;;;;;47.97;25.37;;;;;;;;;;4432627;32;20340;-55
2022/01/30 05:55:19;;;;;;;56.33;26.40;;;;;;;;;;4432388;32;20224;-54
2022/01/30 05:57:44;;;;;;;68.03;35.17;;;;;;;;;;4432621;32;20276;-54
2022/01/30 06:00:13;;;;;;;43.00;27.53;;;;;;;;;;4432460;32;20299;-55
2022/01/30 06:02:43;;;;;;;42.77;20.47;;;;;;;;;;4431623;32;20361;-53
2022/01/30 06:05:09;;;;;;;30.47;18.43;;;;;;;;;;4416605;32;20193;-55
2022/01/30 06:07:38;;;;;;;48.30;19.13;;;;;;;;;;4431814;32;20189;-54
2022/01/30 06:10:04;;;;;;;44.20;22.93;;;;;;;;;;4431901;32;20294;-54
2022/01/30 06:12:29;;;;;;;59.53;26.37;;;;;;;;;;4432199;32;20307;-55
2022/01/30 06:14:55;;;;;;;58.33;29.27;;;;;;;;;;4432042;32;20399;-53
2022/01/30 06:17:21;;;;;;;80.03;31.57;;;;;;;;;;4405514;32;20233;-54
2022/01/30 06:19:46;;;;;;;69.23;36.53;;;;;;;;;;4431865;32;20309;-54
2022/01/30 06:22:12;;;;;;;60.90;33.10;;;;;;;;;;4432049;32;20282;-54
2022/01/30 06:24:37;;;;;;;45.90;23.87;;;;;;;;;;4432110;32;20296;-54
2022/01/30 06:27:03;;;;;;;35.60;21.87;;;;;;;;;;4414442;32;20347;-53
2022/01/30 06:29:29;;;;;;;46.00;24.60;;;;;;;;;;4416677;32;20387;-54
2022/01/30 06:31:54;;;;;;;42.93;20.53;;;;;;;;;;4416616;32;20328;-54
2022/01/30 06:34:20;;;;;;;44.77;24.63;;;;;;;;;;4416731;32;20318;-56
2022/01/30 06:36:45;;;;;;;66.87;33.17;;;;;;;;;;4416792;32;20677;-55
2022/01/30 06:39:11;;;;;;;72.17;35.20;;;;;;;;;;4431039;32;20371;-54
2022/01/30 06:41:36;;;;;;;79.93;40.43;;;;;;;;;;4431570;32;20629;-55
2022/01/30 06:44:02;;;;;;;96.93;44.10;;;;;;;;;;4432284;32;20335;-54
2022/01/30 06:46:28;;;;;;;140.13;56.37;;;;;;;;;;4446399;32;20522;-54
2022/01/30 06:48:53;;;;;;;113.53;56.67;;;;;;;;;;4432237;32;20830;-54
2022/01/30 06:51:18;;;;;;;79.90;44.13;;;;;;;;;;4431920;32;20306;-54
2022/01/30 06:53:44;;;;;;;81.03;40.67;;;;;;;;;;4432079;32;20393;-54
2022/01/30 06:56:10;;;;;;;77.30;41.47;;;;;;;;;;4431727;32;20352;-54
2022/01/30 06:58:35;;;;;;;89.83;44.83;;;;;;;;;;4412977;32;20382;-54
2022/01/30 07:01:00;;;;;;;83.23;45.30;;;;;;;;;;4416659;32;20725;-54
2022/01/30 07:03:26;;;;;;;80.13;41.87;;;;;;;;;;4416952;32;20307;-56
2022/01/30 07:05:51;;;;;;;76.93;36.93;;;;;;;;;;4415981;32;20271;-55
2022/01/30 07:08:17;;;;;;;70.77;36.37;;;;;;;;;;4416554;32;20284;-54
2022/01/30 07:10:42;;;;;;;85.53;39.03;;;;;;;;;;4416395;32;20359;-54
2022/01/30 07:13:10;;;;;;;63.30;32.40;;;;;;;;;;4415130;32;20409;-55
2022/01/30 07:15:35;;;;;;;61.13;31.17;;;;;;;;;;4416389;32;20248;-55
2022/01/30 07:18:01;;;;;;;62.87;31.07;;;;;;;;;;4416094;32;20284;-54
2022/01/30 07:20:27;;;;;;;66.80;32.87;;;;;;;;;;4415966;32;20386;-54
2022/01/30 07:22:52;;;;;;;66.33;32.53;;;;;;;;;;4415050;32;20682;-54
2022/01/30 07:25:18;;;;;;;59.27;33.70;;;;;;;;;;4416144;32;20237;-57
2022/01/30 07:27:43;;;;;;;70.47;36.93;;;;;;;;;;4416248;32;20299;-53
2022/01/30 07:30:10;;;;;;;60.03;34.73;;;;;;;;;;4416208;32;20268;-54
2022/01/30 07:32:35;;;;;;;61.33;36.37;;;;;;;;;;4416277;32;20341;-55
2022/01/30 07:35:00;;;;;;;73.30;37.07;;;;;;;;;;4415959;32;20296;-55
2022/01/30 07:37:27;;;;;;;81.83;42.00;;;;;;;;;;4417487;32;20325;-55
2022/01/30 07:39:53;;;;;;;76.97;37.23;;;;;;;;;;4431192;32;20280;-55
2022/01/30 07:42:19;;;;;;;79.30;41.97;;;;;;;;;;4417165;32;20229;-55
2022/01/30 07:44:45;;;;;;;80.23;40.63;;;;;;;;;;4422898;32;20383;-56
2022/01/30 07:47:11;;;;;;;85.10;44.80;;;;;;;;;;4417431;32;20565;-55
2022/01/30 07:49:36;;;;;;;88.17;45.00;;;;;;;;;;4431599;32;20292;-56
2022/01/30 07:52:02;;;;;;;93.27;48.63;;;;;;;;;;4431286;32;20251;-55
2022/01/30 07:54:28;;;;;;;95.97;49.00;;;;;;;;;;4417263;32;20376;-55
2022/01/30 07:56:54;;;;;;;92.87;49.00;;;;;;;;;;4431228;32;20286;-54
2022/01/30 07:59:20;;;;;;;121.97;58.47;;;;;;;;;;4421558;32;20335;-55
2022/01/30 08:01:46;;;;;;;77.20;42.73;;;;;;;;;;4415953;32;20661;-55
2022/01/30 08:04:12;;;;;;;95.23;44.50;;;;;;;;;;4416265;32;20693;-54
2022/01/30 08:06:37;;;;;;;142.27;62.87;;;;;;;;;;4415997;32;20255;-53
2022/01/30 08:09:03;;;;;;;69.83;36.30;;;;;;;;;;4416171;32;20304;-54
2022/01/30 08:11:29;;;;;;;70.50;36.70;;;;;;;;;;4415925;32;20221;-55
2022/01/30 08:13:55;;;;;;;338.30;184.47;;;;;;;;;;4416392;32;20603;-55
2022/01/30 08:16:21;;;;;;;83.40;45.70;;;;;;;;;;4415927;32;20229;-54
2022/01/30 08:18:46;;;;;;;93.67;47.17;;;;;;;;;;4416157;32;20260;-54
2022/01/30 08:21:12;;;;;;;89.13;47.90;;;;;;;;;;4416007;32;20708;-54
2022/01/30 08:23:37;;;;;;;90.80;47.93;;;;;;;;;;4416308;32;20319;-55
2022/01/30 08:26:03;;;;;;;93.30;51.87;;;;;;;;;;4416072;32;20589;-54
2022/01/30 08:28:28;;;;;;;89.47;52.37;;;;;;;;;;4414966;32;20333;-56
2022/01/30 08:30:54;;;;;;;99.83;50.20;;;;;;;;;;4416002;32;20280;-55
2022/01/30 08:33:20;;;;;;;91.37;46.33;;;;;;;;;;4418647;32;20280;-55
2022/01/30 08:35:46;;;;;;;89.27;47.57;;;;;;;;;;4418756;32;20324;-54
2022/01/30 08:38:14;;;;;;;127.50;63.67;;;;;;;;;;4417532;32;20437;-55
2022/01/30 08:40:40;;;;;;;99.03;49.43;;;;;;;;;;4428462;32;20266;-54
2022/01/30 08:43:05;;;;;;;73.07;38.80;;;;;;;;;;4434462;32;20701;-54
2022/01/30 08:45:31;;;;;;;76.80;37.20;;;;;;;;;;4443021;32;20300;-54
2022/01/30 08:47:56;;;;;;;115.37;50.60;;;;;;;;;;4449299;32;20301;-55
2022/01/30 08:50:22;;;;;;;69.03;37.27;;;;;;;;;;4449637;32;20224;-54
2022/01/30 08:52:48;;;;;;;65.57;33.30;;;;;;;;;;4449345;32;20354;-56
2022/01/30 08:55:15;;;;;;;62.40;31.33;;;;;;;;;;4449252;32;20192;-53
2022/01/30 08:57:41;;;;;;;83.27;38.37;;;;;;;;;;4449781;32;20703;-55
2022/01/30 09:00:09;;;;;;;57.50;29.30;;;;;;;;;;4434495;32;20287;-53
2022/01/30 09:02:36;;;;;;;57.70;32.30;;;;;;;;;;4433517;32;20295;-54
2022/01/30 09:05:03;;;;;;;64.53;34.47;;;;;;;;;;4418813;32;20541;-53
2022/01/30 09:07:28;;;;;;;58.47;30.57;;;;;;;;;;4418863;32;20292;-54
2022/01/30 09:09:54;;;;;;;63.27;36.43;;;;;;;;;;4417542;32;20620;-53
2022/01/30 09:12:19;;;;;;;55.97;26.77;;;;;;;;;;4418533;32;20710;-54
2022/01/30 09:14:45;;;;;;;49.57;28.70;;;;;;;;;;4418698;32;20292;-53
2022/01/30 09:17:15;;;;;;;43.03;23.00;;;;;;;;;;4418263;32;20221;-54
2022/01/30 09:19:45;;;;;;;106.77;54.67;;;;;;;;;;4418714;32;20598;-54
2022/01/30 09:22:13;;;;;;;85.03;43.70;;;;;;;;;;4418337;32;20225;-55
2022/01/30 09:24:39;;;;;;;41.43;23.77;;;;;;;;;;4417063;32;20283;-55
2022/01/30 09:27:06;;;;;;;61.43;31.60;;;;;;;;;;4404396;32;20330;-54
2022/01/30 09:29:33;;;;;;;39.17;23.10;;;;;;;;;;4418285;32;20189;-53
2022/01/30 09:31:59;;;;;;;40.43;23.57;;;;;;;;;;4418107;32;20251;-53
2022/01/30 09:34:25;;;;;;;40.80;22.27;;;;;;;;;;4418225;32;20225;-55
2022/01/30 09:36:50;;;;;;;37.90;21.27;;;;;;;;;;4427298;32;20523;-54
2022/01/30 09:39:16;;;;;;;47.63;21.93;;;;;;;;;;4433327;32;20275;-55
2022/01/30 09:41:43;;;;;;;35.20;20.13;;;;;;;;;;4433524;32;20550;-55
2022/01/30 09:44:12;;;;;;;22.87;15.87;;;;;;;;;;4432819;32;20197;-56
2022/01/30 09:46:42;;;;;;;32.37;17.37;;;;;;;;;;4434521;32;20289;-55
2022/01/30 09:49:09;;;;;;;26.10;14.07;;;;;;;;;;4448831;32;20197;-54
2022/01/30 09:51:37;;;;;;;27.87;15.10;;;;;;;;;;4448656;32;20300;-54
2022/01/30 09:54:03;;;;;;;35.00;18.77;;;;;;;;;;4448354;32;20500;-56
2022/01/30 09:56:29;;;;;;;28.83;15.30;;;;;;;;;;4448570;32;20313;-55
2022/01/30 09:58:54;;;;;;;23.13;13.53;;;;;;;;;;4434811;32;20300;-57
2022/01/30 10:01:20;;;;;;;21.47;12.33;;;;;;;;;;4417819;32;20249;-54
2022/01/30 10:03:49;;;;;;;41.30;18.20;;;;;;;;;;4417626;32;20831;-55
2022/01/30 10:06:20;;;;;;;53.67;21.67;;;;;;;;;;4417769;32;20334;-53
2022/01/30 10:08:48;;;;;;;48.13;21.63;;;;;;;;;;4417451;32;20357;-55
2022/01/30 10:11:37;;;;;;;18.80;10.60;;;;;;;;;;4417659;32;20681;-54
2022/01/30 10:14:11;;;;;;;15.60;11.47;;;;;;;;;;4417575;32;20259;-55
2022/01/30 10:16:40;;;;;;;22.43;11.50;;;;;;;;;;4417074;32;20304;-55
2022/01/30 10:19:11;;;;;;;14.93;9.33;;;;;;;;;;4417459;32;20353;-55
2022/01/30 10:21:37;;;;;;;18.73;11.47;;;;;;;;;;4418370;32;20323;-54
2022/01/30 10:24:22;;;;;;;18.70;9.67;;;;;;;;;;4432683;32;20276;-55
2022/01/30 10:26:48;;;;;;;37.07;17.20;;;;;;;;;;4432541;32;20332;-55
2022/01/30 10:29:29;;;;;;;40.03;17.87;;;;;;;;;;4432883;32;20619;-56
2022/01/30 10:32:01;;;;;;;29.03;14.27;;;;;;;;;;4418235;32;20267;-55
2022/01/30 10:34:29;;;;;;;28.20;13.70;;;;;;;;;;4432730;32;20789;-55
2022/01/30 10:37:18;;;;;;;31.67;19.00;;;;;;;;;;4431015;32;20264;-56
2022/01/30 10:39:56;;;;;;;35.53;16.60;;;;;;;;;;4431059;32;20288;-56
2022/01/30 10:42:39;;;;;;;30.10;16.70;;;;;;;;;;4431294;32;20297;-54
2022/01/30 10:45:07;;;;;;;31.23;16.67;;;;;;;;;;4431127;32;20213;-55
2022/01/30 10:47:35;;;;;;;26.50;15.83;;;;;;;;;;4431859;32;20185;-54
2022/01/30 10:50:00;;;;;;;31.90;18.50;;;;;;;;;;4432742;32;20580;-54
2022/01/30 10:52:26;;;;;;;51.33;27.47;;;;;;;;;;4418431;32;20240;-55
2022/01/30 10:55:03;;;;;;;37.73;21.47;;;;;;;;;;4405109;32;20315;-56
2022/01/30 10:57:28;;;;;;;36.90;23.13;;;;;;;;;;4418262;32;20348;-55
2022/01/30 10:59:56;;;;;;;50.20;26.80;;;;;;;;;;4432266;32;20402;-55
2022/01/30 11:02:23;;;;;;;35.57;22.07;;;;;;;;;;4432497;32;20293;-54
2022/01/30 11:04:50;;;;;;;45.90;25.83;;;;;;;;;;4432274;32;20605;-56
2022/01/30 11:07:20;;;;;;;40.17;23.43;;;;;;;;;;4432162;32;20376;-54
2022/01/30 11:10:01;;;;;;;43.87;24.50;;;;;;;;;;4432015;32;20774;-55
2022/01/30 11:12:40;;;;;;;38.43;20.73;;;;;;;;;;4431906;32;20241;-54
2022/01/30 11:15:22;;;;;;;32.47;20.27;;;;;;;;;;4431614;32;20292;-54
2022/01/30 11:17:48;;;;;;;33.03;18.30;;;;;;;;;;4431659;32;20632;-54
2022/01/30 11:20:14;;;;;;;27.77;16.60;;;;;;;;;;4431462;32;20307;-55
2022/01/30 11:22:45;;;;;;;34.87;18.67;;;;;;;;;;4431887;32;20197;-56
2022/01/30 11:25:12;;;;;;;30.03;17.90;;;;;;;;;;4431694;32;20197;-54
2022/01/30 11:27:41;;;;;;;122.60;53.47;;;;;;;;;;4431366;32;20690;-55
2022/01/30 11:30:07;;;;;;;57.47;29.03;;;;;;;;;;4431282;32;20252;-54
2022/01/30 11:32:32;;;;;;;47.80;22.03;;;;;;;;;;4404692;32;20323;-55
2022/01/30 11:34:58;;;;;;;32.70;18.50;;;;;;;;;;4417112;32;20364;-55
2022/01/30 11:37:30;;;;;;;33.17;16.80;;;;;;;;;;4427995;32;20363;-55
2022/01/30 11:40:00;;;;;;;35.90;19.73;;;;;;;;;;4414410;32;20629;-56
2022/01/30 11:42:48;;;;;;;36.87;19.40;;;;;;;;;;4415592;32;20688;-56
2022/01/30 11:45:18;;;;;;;23.07;11.70;;;;;;;;;;4430464;32;20527;-56
2022/01/30 11:47:55;;;;;;;26.37;13.57;;;;;;;;;;4446512;32;20232;-55
2022/01/30 11:50:29;;;;;;;29.17;13.43;;;;;;;;;;4433124;32;20684;-55
2022/01/30 11:53:08;;;;;;;21.23;12.80;;;;;;;;;;4446848;32;20268;-57
2022/01/30 11:55:54;;;;;;;28.20;12.53;;;;;;;;;;4446936;32;20232;-55
2022/01/30 11:58:38;;;;;;;24.30;12.80;;;;;;;;;;4446441;32;20602;-55
2022/01/30 12:01:22;;;;;;;21.83;13.27;;;;;;;;;;4432731;32;20228;-55
2022/01/30 12:04:10;;;;;;;20.83;12.73;;;;;;;;;;4430937;32;20217;-57
2022/01/30 12:06:38;;;;;;;29.13;15.57;;;;;;;;;;4416719;32;20365;-55
2022/01/30 12:09:16;;;;;;;24.17;12.30;;;;;;;;;;4415630;32;20256;-56
2022/01/30 12:11:47;;;;;;;18.03;11.20;;;;;;;;;;4423370;32;20254;-56
2022/01/30 12:14:21;;;;;;;28.10;13.17;;;;;;;;;;4434147;32;20276;-55
2022/01/30 12:16:48;;;;;;;49.43;23.50;;;;;;;;;;4419890;32;20369;-56
2022/01/30 12:19:37;;;;;;;26.43;15.37;;;;;;;;;;4434474;32;20614;-56
2022/01/30 12:22:20;;;;;;;29.60;16.50;;;;;;;;;;4434212;32;20288;-56
2022/01/30 12:24:48;;;;;;;14.50;8.27;;;;;;;;;;4434184;32;20378;-56
2022/01/30 12:27:14;;;;;;;24.07;12.10;;;;;;;;;;4433586;32;20274;-56
2022/01/30 12:29:41;;;;;;;25.37;14.10;;;;;;;;;;4420385;32;20458;-56
2022/01/30 12:32:22;;;;;;;16.53;10.30;;;;;;;;;;4419931;32;20303;-55
2022/01/30 12:34:56;;;;;;;23.97;11.93;;;;;;;;;;4434230;32;20276;-58
2022/01/30 12:37:27;;;;;;;15.40;8.57;;;;;;;;;;4433598;32;20207;-56
2022/01/30 12:39:53;;;;;;;13.93;8.30;;;;;;;;;;4434279;32;20219;-56
2022/01/30 12:42:20;;;;;;;11.80;7.73;;;;;;;;;;4433585;32;20220;-55
2022/01/30 12:44:49;;;;;;;12.93;8.27;;;;;;;;;;4437636;32;20378;-56
2022/01/30 12:47:16;;;;;;;17.07;10.10;;;;;;;;;;4435167;32;20359;-56
2022/01/30 12:49:51;;;;;;;19.30;11.33;;;;;;;;;;4449019;32;20324;-57
2022/01/30 12:52:30;;;;;;;27.07;9.47;;;;;;;;;;4434943;32;20243;-55
2022/01/30 12:54:57;;;;;;;22.27;11.33;;;;;;;;;;4434890;32;20364;-56
2022/01/30 12:57:24;;;;;;;19.73;11.53;;;;;;;;;;4448177;32;20242;-56
2022/01/30 12:59:58;;;;;;;21.20;9.80;;;;;;;;;;4448813;32;20598;-55
2022/01/30 13:02:26;;;;;;;18.80;10.53;;;;;;;;;;4448937;32;20234;-56
2022/01/30 13:05:03;;;;;;;24.83;10.97;;;;;;;;;;4427664;32;20248;-56
2022/01/30 13:07:28;;;;;;;23.97;11.07;;;;;;;;;;4432977;32;20200;-56
2022/01/30 13:10:09;;;;;;;23.70;11.07;;;;;;;;;;4419106;32;20339;-57
2022/01/30 13:12:35;;;;;;;22.93;12.43;;;;;;;;;;4422707;32;20628;-55
2022/01/30 13:15:15;;;;;;;26.77;16.10;;;;;;;;;;4416701;32;20580;-56
2022/01/30 13:17:42;;;;;;;26.80;13.67;;;;;;;;;;4416661;32;20242;-55
2022/01/30 13:20:09;;;;;;;21.13;12.63;;;;;;;;;;4416851;32;20395;-56
2022/01/30 13:22:38;;;;;;;74.80;32.87;;;;;;;;;;4416699;32;20259;-56
2022/01/30 13:25:06;;;;;;;22.43;13.20;;;;;;;;;;4416764;32;20283;-55
2022/01/30 13:27:32;;;;;;;33.87;16.33;;;;;;;;;;4416717;32;20272;-54
2022/01/30 13:29:58;;;;;;;23.80;13.23;;;;;;;;;;4417961;32;20323;-55
2022/01/30 13:32:25;;;;;;;28.20;15.30;;;;;;;;;;4418049;32;20605;-54
2022/01/30 13:34:53;;;;;;;28.90;16.50;;;;;;;;;;4417760;32;20206;-55
2022/01/30 13:37:20;;;;;;;34.27;19.97;;;;;;;;;;4419518;32;20326;-54
2022/01/30 13:40:02;;;;;;;30.87;18.67;;;;;;;;;;4433149;32;20351;-56
2022/01/30 13:47:40;;;;;;;94.50;44.57;;;;;;;;;;4448100;32;20258;-55
2022/01/30 13:50:15;;;;;;;82.67;41.07;;;;;;;;;;4448642;32;20299;-54
2022/01/30 13:52:41;;;;;;;80.30;37.07;;;;;;;;;;4448295;32;20228;-55
2022/01/30 13:55:07;;;;;;;86.97;40.37;;;;;;;;;;4421261;32;20361;-55
2022/01/30 13:57:36;;;;;;;78.17;39.37;;;;;;;;;;4447955;32;20309;-55
2022/01/30 14:00:17;;;;;;;66.50;35.43;;;;;;;;;;4432430;32;20197;-55
2022/01/30 14:02:57;;;;;;;49.10;28.00;;;;;;;;;;4433000;32;20246;-56
2022/01/30 14:05:23;;;;;;;55.83;28.80;;;;;;;;;;4418789;32;20329;-55
2022/01/30 14:07:50;;;;;;;59.23;29.43;;;;;;;;;;4418226;32;20360;-55
2022/01/30 14:10:17;;;;;;;61.23;33.10;;;;;;;;;;4432747;32;20363;-55
2022/01/30 14:12:42;;;;;;;50.20;32.83;;;;;;;;;;4418347;32;20584;-56
2022/01/30 14:15:10;;;;;;;66.97;34.00;;;;;;;;;;4418578;32;20290;-55
2022/01/30 14:17:40;;;;;;;58.60;30.90;;;;;;;;;;4432345;32;20288;-56
2022/01/30 14:20:08;;;;;;;65.80;34.13;;;;;;;;;;4419100;32;20310;-55
2022/01/30 14:22:35;;;;;;;69.97;37.17;;;;;;;;;;4432202;32;20631;-55
2022/01/30 14:25:13;;;;;;;79.83;41.60;;;;;;;;;;4418126;32;20304;-56
2022/01/30 14:27:39;;;;;;;88.77;42.07;;;;;;;;;;4432231;32;20208;-57
2022/01/30 14:30:09;;;;;;;85.67;39.43;;;;;;;;;;4431603;32;20235;-55
2022/01/30 14:32:41;;;;;;;70.57;38.70;;;;;;;;;;4418387;32;20308;-56
2022/01/30 14:35:09;;;;;;;74.67;39.30;;;;;;;;;;4432074;32;20248;-55
2022/01/30 14:37:36;;;;;;;148.33;72.60;;;;;;;;;;4417866;32;20425;-55
2022/01/30 14:40:06;;;;;;;134.97;67.03;;;;;;;;;;4418024;32;20224;-55
2022/01/30 14:42:31;;;;;;;105.93;56.07;;;;;;;;;;4418150;32;20301;-54
2022/01/30 14:44:57;;;;;;;119.13;60.00;;;;;;;;;;4423189;32;20542;-55
2022/01/30 14:47:23;;;;;;;117.70;60.73;;;;;;;;;;4447086;32;20578;-55
2022/01/30 14:49:49;;;;;;;122.67;64.77;;;;;;;;;;4447742;32;20338;-55
2022/01/30 14:52:16;;;;;;;112.30;61.10;;;;;;;;;;4433157;32;20256;-55
2022/01/30 14:54:43;;;;;;;112.40;58.17;;;;;;;;;;4447540;32;20229;-56
2022/01/30 14:57:08;;;;;;;110.90;60.97;;;;;;;;;;4439472;32;20296;-55
2022/01/30 14:59:34;;;;;;;107.03;58.40;;;;;;;;;;4417947;32;20351;-56
2022/01/30 15:02:00;;;;;;;142.87;69.83;;;;;;;;;;4418162;32;20351;-55
2022/01/30 15:04:25;;;;;;;119.33;66.03;;;;;;;;;;4431969;32;20721;-55
2022/01/30 15:06:52;;;;;;;111.53;62.33;;;;;;;;;;4431642;32;20228;-55
2022/01/30 15:09:17;;;;;;;126.77;61.00;;;;;;;;;;4432022;32;20197;-55
2022/01/30 15:11:43;;;;;;;110.37;58.13;;;;;;;;;;4427180;32;20582;-54
2022/01/30 15:14:10;;;;;;;131.97;66.10;;;;;;;;;;4415476;32;20287;-57
2022/01/30 15:16:50;;;;;;;128.40;62.87;;;;;;;;;;4415336;32;20379;-55
2022/01/30 15:19:17;;;;;;;135.70;66.30;;;;;;;;;;4416641;32;20217;-55
2022/01/30 15:21:43;;;;;;;131.60;65.20;;;;;;;;;;4401783;32;20284;-54
2022/01/30 15:24:10;;;;;;;156.47;79.07;;;;;;;;;;4416095;32;20205;-55